sensor_id;sensor_type;location;lat;lon;timestamp;temperature;humidity
53498;DHT22;39382;47.168;16.008;2023-09-19T00:00:01;18.20;99.90
53498;DHT22;39382;47.168;16.008;2023-09-19T00:02:27;18.20;99.90
53498;DHT22;39382;47.168;16.008;2023-09-19T00:04:52;18.10;99.90
53498;DHT22;39382;47.168;16.008;2023-09-19T00:07:19;18.10;99.90
53498;DHT22;39382;47.168;16.008;2023-09-19T00:09:46;18.10;99.90
53498;DHT22;39382;47.168;16.008;2023-09-19T00:12:12;18.10;99.90
53498;DHT22;39382;47.168;16.008;2023-09-19T00:14:38;18.00;99.90
53498;DHT22;39382;47.168;16.008;2023-09-19T00:17:04;18.00;99.90
53498;DHT22;39382;47.168;16.008;2023-09-19T00:19:36;18.10;99.90
53498;DHT22;39382;47.168;16.008;2023-09-19T00:22:03;18.00;99.90
53498;DHT22;39382;47.168;16.008;2023-09-19T00:24:29;18.00;99.90
53498;DHT22;39382;47.168;16.008;2023-09-19T00:26:56;18.10;99.90
53498;DHT22;39382;47.168;16.008;2023-09-19T00:29:25;18.10;99.90
53498;DHT22;39382;47.168;16.008;2023-09-19T00:31:55;18.00;99.90
53498;DHT22;39382;47.168;16.008;2023-09-19T00:34:21;18.10;99.90
53498;DHT22;39382;47.168;16.008;2023-09-19T00:36:47;18.10;99.90
53498;DHT22;39382;47.168;16.008;2023-09-19T00:39:12;18.10;99.90
53498;DHT22;39382;47.168;16.008;2023-09-19T00:41:38;18.10;99.90
53498;DHT22;39382;47.168;16.008;2023-09-19T00:44:04;18.10;99.90
53498;DHT22;39382;47.168;16.008;2023-09-19T00:46:31;18.10;99.90
53498;DHT22;39382;47.168;16.008;2023-09-19T00:48:58;18.00;99.90
53498;DHT22;39382;47.168;16.008;2023-09-19T00:51:25;18.00;99.90
53498;DHT22;39382;47.168;16.008;2023-09-19T00:53:52;18.00;99.90
53498;DHT22;39382;47.168;16.008;2023-09-19T00:56:19;18.00;99.90
53498;DHT22;39382;47.168;16.008;2023-09-19T00:58:46;18.00;99.90
53498;DHT22;39382;47.168;16.008;2023-09-19T01:01:16;18.00;99.90
53498;DHT22;39382;47.168;16.008;2023-09-19T01:03:42;18.00;99.90
53498;DHT22;39382;47.168;16.008;2023-09-19T01:06:09;18.10;99.90
53498;DHT22;39382;47.168;16.008;2023-09-19T01:08:35;18.10;99.90
53498;DHT22;39382;47.168;16.008;2023-09-19T01:11:17;18.10;99.90
53498;DHT22;39382;47.168;16.008;2023-09-19T01:13:58;18.10;99.90
53498;DHT22;39382;47.168;16.008;2023-09-19T01:22:04;18.10;99.90
53498;DHT22;39382;47.168;16.008;2023-09-19T01:27:50;18.10;99.90
53498;DHT22;39382;47.168;16.008;2023-09-19T01:30:21;18.10;99.90
53498;DHT22;39382;47.168;16.008;2023-09-19T01:32:50;18.10;99.90
53498;DHT22;39382;47.168;16.008;2023-09-19T01:35:18;18.10;99.90
53498;DHT22;39382;47.168;16.008;2023-09-19T01:37:44;18.10;99.90
53498;DHT22;39382;47.168;16.008;2023-09-19T01:40:14;18.10;99.90
53498;DHT22;39382;47.168;16.008;2023-09-19T01:42:59;18.10;99.90
53498;DHT22;39382;47.168;16.008;2023-09-19T01:51:07;18.20;99.90
53498;DHT22;39382;47.168;16.008;2023-09-19T01:56:05;18.20;99.90
53498;DHT22;39382;47.168;16.008;2023-09-19T01:58:41;18.30;99.90
53498;DHT22;39382;47.168;16.008;2023-09-19T02:01:13;18.30;99.90
53498;DHT22;39382;47.168;16.008;2023-09-19T02:03:41;18.30;99.90
53498;DHT22;39382;47.168;16.008;2023-09-19T02:06:17;18.30;99.90
53498;DHT22;39382;47.168;16.008;2023-09-19T02:08:43;18.30;99.90
53498;DHT22;39382;47.168;16.008;2023-09-19T02:11:11;18.30;99.90
53498;DHT22;39382;47.168;16.008;2023-09-19T02:13:37;18.30;99.90
53498;DHT22;39382;47.168;16.008;2023-09-19T02:16:03;18.30;99.90
53498;DHT22;39382;47.168;16.008;2023-09-19T02:18:30;18.30;99.90
53498;DHT22;39382;47.168;16.008;2023-09-19T02:20:56;18.30;99.90
53498;DHT22;39382;47.168;16.008;2023-09-19T02:23:24;18.30;99.90
53498;DHT22;39382;47.168;16.008;2023-09-19T02:25:56;18.30;99.90
53498;DHT22;39382;47.168;16.008;2023-09-19T02:28:31;18.30;99.90
53498;DHT22;39382;47.168;16.008;2023-09-19T02:30:58;18.30;99.90
53498;DHT22;39382;47.168;16.008;2023-09-19T02:33:23;18.30;99.90
53498;DHT22;39382;47.168;16.008;2023-09-19T02:35:49;18.30;99.90
53498;DHT22;39382;47.168;16.008;2023-09-19T02:38:15;18.30;99.90
53498;DHT22;39382;47.168;16.008;2023-09-19T02:40:46;18.30;99.90
53498;DHT22;39382;47.168;16.008;2023-09-19T02:43:12;18.20;99.90
53498;DHT22;39382;47.168;16.008;2023-09-19T02:45:37;18.20;99.90
53498;DHT22;39382;47.168;16.008;2023-09-19T02:48:03;18.30;99.90
53498;DHT22;39382;47.168;16.008;2023-09-19T02:50:29;18.30;99.90
53498;DHT22;39382;47.168;16.008;2023-09-19T02:52:55;18.30;99.90
53498;DHT22;39382;47.168;16.008;2023-09-19T02:55:21;18.30;99.90
53498;DHT22;39382;47.168;16.008;2023-09-19T02:57:47;18.20;99.90
53498;DHT22;39382;47.168;16.008;2023-09-19T03:00:13;18.20;99.90
53498;DHT22;39382;47.168;16.008;2023-09-19T03:02:39;18.20;99.90
53498;DHT22;39382;47.168;16.008;2023-09-19T03:05:07;18.20;99.90
53498;DHT22;39382;47.168;16.008;2023-09-19T03:07:33;18.20;99.90
53498;DHT22;39382;47.168;16.008;2023-09-19T03:09:59;18.30;99.90
53498;DHT22;39382;47.168;16.008;2023-09-19T03:12:26;18.20;99.90
53498;DHT22;39382;47.168;16.008;2023-09-19T03:14:52;18.30;99.90
53498;DHT22;39382;47.168;16.008;2023-09-19T03:17:17;18.30;99.90
53498;DHT22;39382;47.168;16.008;2023-09-19T03:19:45;18.20;99.90
53498;DHT22;39382;47.168;16.008;2023-09-19T03:22:11;18.20;99.90
53498;DHT22;39382;47.168;16.008;2023-09-19T03:24:37;18.20;99.90
53498;DHT22;39382;47.168;16.008;2023-09-19T03:27:03;18.10;99.90
53498;DHT22;39382;47.168;16.008;2023-09-19T03:29:29;18.10;99.90
53498;DHT22;39382;47.168;16.008;2023-09-19T03:31:55;18.10;99.90
53498;DHT22;39382;47.168;16.008;2023-09-19T03:34:21;18.10;99.90
53498;DHT22;39382;47.168;16.008;2023-09-19T03:36:47;18.20;99.90
53498;DHT22;39382;47.168;16.008;2023-09-19T03:39:12;18.40;99.90
53498;DHT22;39382;47.168;16.008;2023-09-19T03:41:41;18.40;99.90
53498;DHT22;39382;47.168;16.008;2023-09-19T03:44:07;18.40;99.90
53498;DHT22;39382;47.168;16.008;2023-09-19T03:46:33;18.30;99.90
53498;DHT22;39382;47.168;16.008;2023-09-19T03:49:00;18.30;99.90
53498;DHT22;39382;47.168;16.008;2023-09-19T03:51:26;18.30;99.90
53498;DHT22;39382;47.168;16.008;2023-09-19T03:53:51;18.20;99.90
53498;DHT22;39382;47.168;16.008;2023-09-19T03:56:17;18.20;99.90
53498;DHT22;39382;47.168;16.008;2023-09-19T03:58:43;18.10;99.90
53498;DHT22;39382;47.168;16.008;2023-09-19T04:01:08;18.10;99.90
53498;DHT22;39382;47.168;16.008;2023-09-19T04:03:34;18.10;99.90
53498;DHT22;39382;47.168;16.008;2023-09-19T04:06:11;18.10;99.90
53498;DHT22;39382;47.168;16.008;2023-09-19T04:08:37;18.10;99.90
53498;DHT22;39382;47.168;16.008;2023-09-19T04:11:03;18.10;99.90
53498;DHT22;39382;47.168;16.008;2023-09-19T04:13:28;18.10;99.90
53498;DHT22;39382;47.168;16.008;2023-09-19T04:15:54;18.10;99.90
53498;DHT22;39382;47.168;16.008;2023-09-19T04:18:19;18.10;99.90
53498;DHT22;39382;47.168;16.008;2023-09-19T04:20:52;18.00;99.90
53498;DHT22;39382;47.168;16.008;2023-09-19T04:23:18;17.90;99.90
53498;DHT22;39382;47.168;16.008;2023-09-19T04:25:46;17.90;99.90
53498;DHT22;39382;47.168;16.008;2023-09-19T04:28:11;18.00;99.90
53498;DHT22;39382;47.168;16.008;2023-09-19T04:30:38;18.00;99.90
53498;DHT22;39382;47.168;16.008;2023-09-19T04:33:05;18.00;99.90
53498;DHT22;39382;47.168;16.008;2023-09-19T04:35:32;17.90;99.90
53498;DHT22;39382;47.168;16.008;2023-09-19T04:37:57;18.00;99.90
53498;DHT22;39382;47.168;16.008;2023-09-19T04:40:23;18.00;99.90
53498;DHT22;39382;47.168;16.008;2023-09-19T04:42:55;18.00;99.90
53498;DHT22;39382;47.168;16.008;2023-09-19T04:45:22;17.90;99.90
53498;DHT22;39382;47.168;16.008;2023-09-19T04:47:48;18.00;99.90
53498;DHT22;39382;47.168;16.008;2023-09-19T04:50:13;18.00;99.90
53498;DHT22;39382;47.168;16.008;2023-09-19T04:52:43;18.00;99.90
53498;DHT22;39382;47.168;16.008;2023-09-19T04:55:13;17.90;99.90
53498;DHT22;39382;47.168;16.008;2023-09-19T04:57:42;17.80;99.90
53498;DHT22;39382;47.168;16.008;2023-09-19T05:00:11;17.80;99.90
53498;DHT22;39382;47.168;16.008;2023-09-19T05:02:38;17.80;99.90
53498;DHT22;39382;47.168;16.008;2023-09-19T05:05:06;18.40;99.90
53498;DHT22;39382;47.168;16.008;2023-09-19T05:07:32;18.30;99.90
53498;DHT22;39382;47.168;16.008;2023-09-19T05:09:59;18.20;99.90
53498;DHT22;39382;47.168;16.008;2023-09-19T05:12:26;18.00;99.90
53498;DHT22;39382;47.168;16.008;2023-09-19T05:14:52;18.00;99.90
53498;DHT22;39382;47.168;16.008;2023-09-19T05:17:18;17.90;99.90
53498;DHT22;39382;47.168;16.008;2023-09-19T05:19:44;17.90;99.90
53498;DHT22;39382;47.168;16.008;2023-09-19T05:22:11;17.80;99.90
53498;DHT22;39382;47.168;16.008;2023-09-19T05:24:38;17.80;99.90
53498;DHT22;39382;47.168;16.008;2023-09-19T05:27:04;17.80;99.90
53498;DHT22;39382;47.168;16.008;2023-09-19T05:29:32;17.80;99.90
53498;DHT22;39382;47.168;16.008;2023-09-19T05:31:59;17.80;99.90
53498;DHT22;39382;47.168;16.008;2023-09-19T05:34:24;17.90;99.90
53498;DHT22;39382;47.168;16.008;2023-09-19T05:36:53;17.90;99.90
53498;DHT22;39382;47.168;16.008;2023-09-19T05:39:19;17.90;99.90
53498;DHT22;39382;47.168;16.008;2023-09-19T05:41:45;17.90;99.90
53498;DHT22;39382;47.168;16.008;2023-09-19T05:44:13;17.90;99.90
53498;DHT22;39382;47.168;16.008;2023-09-19T05:46:39;17.90;99.90
53498;DHT22;39382;47.168;16.008;2023-09-19T05:49:05;17.90;99.90
53498;DHT22;39382;47.168;16.008;2023-09-19T05:51:31;17.90;99.90
53498;DHT22;39382;47.168;16.008;2023-09-19T05:53:56;18.00;99.90
53498;DHT22;39382;47.168;16.008;2023-09-19T05:56:23;17.90;99.90
53498;DHT22;39382;47.168;16.008;2023-09-19T05:58:48;17.90;99.90
53498;DHT22;39382;47.168;16.008;2023-09-19T06:01:15;17.90;99.90
53498;DHT22;39382;47.168;16.008;2023-09-19T06:03:40;17.90;99.90
53498;DHT22;39382;47.168;16.008;2023-09-19T06:06:06;17.90;99.90
53498;DHT22;39382;47.168;16.008;2023-09-19T06:08:34;17.90;99.90
53498;DHT22;39382;47.168;16.008;2023-09-19T06:11:00;17.90;99.90
53498;DHT22;39382;47.168;16.008;2023-09-19T06:13:28;17.80;99.90
53498;DHT22;39382;47.168;16.008;2023-09-19T06:15:55;17.80;99.90
53498;DHT22;39382;47.168;16.008;2023-09-19T06:18:22;17.90;99.90
53498;DHT22;39382;47.168;16.008;2023-09-19T06:20:51;17.90;99.90
53498;DHT22;39382;47.168;16.008;2023-09-19T06:23:17;17.90;99.90
53498;DHT22;39382;47.168;16.008;2023-09-19T06:25:43;17.90;99.90
53498;DHT22;39382;47.168;16.008;2023-09-19T06:28:09;17.90;99.90
53498;DHT22;39382;47.168;16.008;2023-09-19T06:30:38;18.00;99.90
53498;DHT22;39382;47.168;16.008;2023-09-19T06:33:07;18.00;99.90
53498;DHT22;39382;47.168;16.008;2023-09-19T06:35:33;18.10;99.90
53498;DHT22;39382;47.168;16.008;2023-09-19T06:38:02;18.10;99.90
53498;DHT22;39382;47.168;16.008;2023-09-19T06:40:28;18.20;99.90
53498;DHT22;39382;47.168;16.008;2023-09-19T06:42:56;18.20;99.90
53498;DHT22;39382;47.168;16.008;2023-09-19T06:45:22;18.30;99.90
53498;DHT22;39382;47.168;16.008;2023-09-19T06:47:51;18.30;99.90
53498;DHT22;39382;47.168;16.008;2023-09-19T06:50:18;18.40;99.90
53498;DHT22;39382;47.168;16.008;2023-09-19T06:52:46;18.40;99.90
53498;DHT22;39382;47.168;16.008;2023-09-19T06:55:16;18.50;99.90
53498;DHT22;39382;47.168;16.008;2023-09-19T06:57:45;18.50;99.90
53498;DHT22;39382;47.168;16.008;2023-09-19T07:00:11;18.50;99.90
53498;DHT22;39382;47.168;16.008;2023-09-19T07:03:00;18.50;99.90
53498;DHT22;39382;47.168;16.008;2023-09-19T07:05:30;18.40;99.90
53498;DHT22;39382;47.168;16.008;2023-09-19T07:08:00;18.50;99.90
53498;DHT22;39382;47.168;16.008;2023-09-19T07:10:26;18.60;99.90
53498;DHT22;39382;47.168;16.008;2023-09-19T07:13:10;18.60;99.90
53498;DHT22;39382;47.168;16.008;2023-09-19T07:15:38;18.70;99.90
53498;DHT22;39382;47.168;16.008;2023-09-19T07:18:15;18.70;99.90
53498;DHT22;39382;47.168;16.008;2023-09-19T07:20:42;18.80;99.90
53498;DHT22;39382;47.168;16.008;2023-09-19T07:23:21;18.80;99.90
53498;DHT22;39382;47.168;16.008;2023-09-19T07:25:51;18.80;99.90
53498;DHT22;39382;47.168;16.008;2023-09-19T07:28:17;18.80;99.90
53498;DHT22;39382;47.168;16.008;2023-09-19T07:30:43;18.70;99.90
53498;DHT22;39382;47.168;16.008;2023-09-19T07:33:09;18.70;99.90
53498;DHT22;39382;47.168;16.008;2023-09-19T07:35:38;18.90;99.90
53498;DHT22;39382;47.168;16.008;2023-09-19T07:38:07;19.00;99.90
53498;DHT22;39382;47.168;16.008;2023-09-19T07:40:33;19.10;99.90
53498;DHT22;39382;47.168;16.008;2023-09-19T07:42:59;19.70;99.90
53498;DHT22;39382;47.168;16.008;2023-09-19T07:45:30;20.30;99.90
53498;DHT22;39382;47.168;16.008;2023-09-19T07:47:56;20.80;99.90
53498;DHT22;39382;47.168;16.008;2023-09-19T07:50:22;21.00;99.90
53498;DHT22;39382;47.168;16.008;2023-09-19T07:52:49;21.10;99.90
53498;DHT22;39382;47.168;16.008;2023-09-19T07:55:19;21.00;99.90
53498;DHT22;39382;47.168;16.008;2023-09-19T07:57:48;20.90;99.90
53498;DHT22;39382;47.168;16.008;2023-09-19T08:00:14;20.80;99.90
53498;DHT22;39382;47.168;16.008;2023-09-19T08:02:40;20.80;99.90
53498;DHT22;39382;47.168;16.008;2023-09-19T08:05:07;20.80;99.90
53498;DHT22;39382;47.168;16.008;2023-09-19T08:07:41;20.90;99.90
53498;DHT22;39382;47.168;16.008;2023-09-19T08:10:08;20.80;99.90
53498;DHT22;39382;47.168;16.008;2023-09-19T08:12:44;21.00;99.90
53498;DHT22;39382;47.168;16.008;2023-09-19T08:15:18;21.10;99.90
53498;DHT22;39382;47.168;16.008;2023-09-19T08:17:45;21.10;99.90
53498;DHT22;39382;47.168;16.008;2023-09-19T08:20:12;21.10;99.90
53498;DHT22;39382;47.168;16.008;2023-09-19T08:22:51;21.00;99.90
53498;DHT22;39382;47.168;16.008;2023-09-19T08:25:20;21.00;99.90
53498;DHT22;39382;47.168;16.008;2023-09-19T08:27:47;20.90;99.90
53498;DHT22;39382;47.168;16.008;2023-09-19T08:30:19;20.80;99.90
53498;DHT22;39382;47.168;16.008;2023-09-19T08:32:50;20.80;99.90
53498;DHT22;39382;47.168;16.008;2023-09-19T08:35:15;20.70;99.90
53498;DHT22;39382;47.168;16.008;2023-09-19T08:37:42;20.70;99.90
53498;DHT22;39382;47.168;16.008;2023-09-19T08:40:11;20.60;99.90
53498;DHT22;39382;47.168;16.008;2023-09-19T08:42:52;20.70;99.90
53498;DHT22;39382;47.168;16.008;2023-09-19T08:45:22;20.80;99.90
53498;DHT22;39382;47.168;16.008;2023-09-19T08:48:20;20.90;99.90
53498;DHT22;39382;47.168;16.008;2023-09-19T08:51:03;20.90;99.90
53498;DHT22;39382;47.168;16.008;2023-09-19T08:56:29;20.70;99.90
53498;DHT22;39382;47.168;16.008;2023-09-19T08:59:00;20.80;99.90
53498;DHT22;39382;47.168;16.008;2023-09-19T09:01:31;20.90;99.90
53498;DHT22;39382;47.168;16.008;2023-09-19T09:03:58;21.00;99.90
53498;DHT22;39382;47.168;16.008;2023-09-19T09:06:25;21.10;99.90
53498;DHT22;39382;47.168;16.008;2023-09-19T09:08:51;21.20;99.90
53498;DHT22;39382;47.168;16.008;2023-09-19T09:11:18;21.30;99.90
53498;DHT22;39382;47.168;16.008;2023-09-19T09:13:44;21.60;99.90
53498;DHT22;39382;47.168;16.008;2023-09-19T09:16:10;21.60;99.90
53498;DHT22;39382;47.168;16.008;2023-09-19T09:18:36;21.70;99.90
53498;DHT22;39382;47.168;16.008;2023-09-19T09:21:02;21.70;99.90
53498;DHT22;39382;47.168;16.008;2023-09-19T09:23:30;21.80;99.90
53498;DHT22;39382;47.168;16.008;2023-09-19T09:25:58;22.10;99.90
53498;DHT22;39382;47.168;16.008;2023-09-19T09:28:28;22.10;99.90
53498;DHT22;39382;47.168;16.008;2023-09-19T09:30:54;22.20;99.90
53498;DHT22;39382;47.168;16.008;2023-09-19T09:33:21;22.30;99.90
53498;DHT22;39382;47.168;16.008;2023-09-19T09:38:25;22.40;99.90
53498;DHT22;39382;47.168;16.008;2023-09-19T09:40:56;22.50;99.90
53498;DHT22;39382;47.168;16.008;2023-09-19T09:43:31;22.50;99.90
53498;DHT22;39382;47.168;16.008;2023-09-19T09:46:20;22.70;99.90
53498;DHT22;39382;47.168;16.008;2023-09-19T09:48:47;22.80;99.90
53498;DHT22;39382;47.168;16.008;2023-09-19T09:51:33;22.90;99.90
53498;DHT22;39382;47.168;16.008;2023-09-19T09:54:12;23.00;98.50
53498;DHT22;39382;47.168;16.008;2023-09-19T09:56:59;22.90;98.70
53498;DHT22;39382;47.168;16.008;2023-09-19T09:59:49;23.00;97.20
53498;DHT22;39382;47.168;16.008;2023-09-19T10:02:29;23.10;96.00
53498;DHT22;39382;47.168;16.008;2023-09-19T10:04:58;23.00;95.70
53498;DHT22;39382;47.168;16.008;2023-09-19T10:07:32;23.10;96.00
53498;DHT22;39382;47.168;16.008;2023-09-19T10:10:02;23.10;96.50
53498;DHT22;39382;47.168;16.008;2023-09-19T10:12:46;23.20;97.40
53498;DHT22;39382;47.168;16.008;2023-09-19T10:15:17;23.30;98.30
53498;DHT22;39382;47.168;16.008;2023-09-19T10:17:46;23.40;97.00
53498;DHT22;39382;47.168;16.008;2023-09-19T10:20:13;23.50;95.60
53498;DHT22;39382;47.168;16.008;2023-09-19T10:23:10;23.60;95.20
53498;DHT22;39382;47.168;16.008;2023-09-19T10:25:41;23.60;96.20
53498;DHT22;39382;47.168;16.008;2023-09-19T10:28:08;23.60;95.80
53498;DHT22;39382;47.168;16.008;2023-09-19T10:30:44;23.80;94.90
53498;DHT22;39382;47.168;16.008;2023-09-19T10:33:11;23.80;93.00
53498;DHT22;39382;47.168;16.008;2023-09-19T10:35:39;23.80;94.00
53498;DHT22;39382;47.168;16.008;2023-09-19T10:38:06;24.00;91.90
53498;DHT22;39382;47.168;16.008;2023-09-19T10:40:35;24.10;91.60
53498;DHT22;39382;47.168;16.008;2023-09-19T10:43:05;24.10;91.90
53498;DHT22;39382;47.168;16.008;2023-09-19T10:45:35;24.20;92.30
53498;DHT22;39382;47.168;16.008;2023-09-19T10:48:01;24.30;92.80
53498;DHT22;39382;47.168;16.008;2023-09-19T10:50:35;24.20;92.20
53498;DHT22;39382;47.168;16.008;2023-09-19T10:53:04;24.30;92.30
53498;DHT22;39382;47.168;16.008;2023-09-19T10:55:33;24.30;91.90
53498;DHT22;39382;47.168;16.008;2023-09-19T10:58:01;24.10;91.90
53498;DHT22;39382;47.168;16.008;2023-09-19T11:00:30;24.10;93.10
53498;DHT22;39382;47.168;16.008;2023-09-19T11:05:39;24.00;91.80
53498;DHT22;39382;47.168;16.008;2023-09-19T11:08:07;23.90;92.00
53498;DHT22;39382;47.168;16.008;2023-09-19T11:10:51;23.90;92.40
53498;DHT22;39382;47.168;16.008;2023-09-19T11:13:27;23.90;92.90
53498;DHT22;39382;47.168;16.008;2023-09-19T11:26:49;24.00;92.00
53498;DHT22;39382;47.168;16.008;2023-09-19T11:29:28;23.90;92.90
53498;DHT22;39382;47.168;16.008;2023-09-19T11:31:55;23.90;92.50
53498;DHT22;39382;47.168;16.008;2023-09-19T11:34:54;24.00;92.00
53498;DHT22;39382;47.168;16.008;2023-09-19T11:40:09;24.10;92.60
53498;DHT22;39382;47.168;16.008;2023-09-19T11:45:07;24.00;93.30
53498;DHT22;39382;47.168;16.008;2023-09-19T11:47:33;24.00;92.90
53498;DHT22;39382;47.168;16.008;2023-09-19T11:50:01;24.00;93.30
53498;DHT22;39382;47.168;16.008;2023-09-19T11:52:28;24.10;93.00
53498;DHT22;39382;47.168;16.008;2023-09-19T11:55:01;24.20;91.40
53498;DHT22;39382;47.168;16.008;2023-09-19T11:57:28;24.30;90.70
53498;DHT22;39382;47.168;16.008;2023-09-19T11:59:55;24.40;89.60
53498;DHT22;39382;47.168;16.008;2023-09-19T12:02:39;24.40;90.30
53498;DHT22;39382;47.168;16.008;2023-09-19T12:05:08;24.60;89.90
53498;DHT22;39382;47.168;16.008;2023-09-19T12:07:43;24.70;86.70
53498;DHT22;39382;47.168;16.008;2023-09-19T12:10:11;24.80;85.80
53498;DHT22;39382;47.168;16.008;2023-09-19T12:12:38;25.00;84.50
53498;DHT22;39382;47.168;16.008;2023-09-19T12:15:03;25.00;81.00
53498;DHT22;39382;47.168;16.008;2023-09-19T12:17:39;25.10;83.30
53498;DHT22;39382;47.168;16.008;2023-09-19T12:20:08;25.10;83.70
53498;DHT22;39382;47.168;16.008;2023-09-19T12:22:42;24.90;79.20
53498;DHT22;39382;47.168;16.008;2023-09-19T12:25:09;24.70;81.70
53498;DHT22;39382;47.168;16.008;2023-09-19T12:30:10;24.80;78.10
53498;DHT22;39382;47.168;16.008;2023-09-19T12:32:39;24.80;78.80
53498;DHT22;39382;47.168;16.008;2023-09-19T12:35:06;24.90;80.80
53498;DHT22;39382;47.168;16.008;2023-09-19T12:37:43;24.70;78.90
53498;DHT22;39382;47.168;16.008;2023-09-19T12:40:14;24.80;82.20
53498;DHT22;39382;47.168;16.008;2023-09-19T12:42:46;24.90;79.60
53498;DHT22;39382;47.168;16.008;2023-09-19T12:45:12;24.90;78.80
53498;DHT22;39382;47.168;16.008;2023-09-19T12:47:40;25.00;80.50
53498;DHT22;39382;47.168;16.008;2023-09-19T12:50:10;25.00;79.00
53498;DHT22;39382;47.168;16.008;2023-09-19T12:52:41;25.00;79.20
53498;DHT22;39382;47.168;16.008;2023-09-19T12:55:07;25.20;79.00
53498;DHT22;39382;47.168;16.008;2023-09-19T12:57:34;25.30;77.10
53498;DHT22;39382;47.168;16.008;2023-09-19T13:00:04;25.40;77.00
53498;DHT22;39382;47.168;16.008;2023-09-19T13:02:31;25.60;72.60
53498;DHT22;39382;47.168;16.008;2023-09-19T13:04:58;25.60;71.40
53498;DHT22;39382;47.168;16.008;2023-09-19T13:07:45;25.60;73.30
53498;DHT22;39382;47.168;16.008;2023-09-19T13:10:13;25.70;74.50
53498;DHT22;39382;47.168;16.008;2023-09-19T13:12:42;25.90;74.50
53498;DHT22;39382;47.168;16.008;2023-09-19T13:15:14;26.10;73.20
53498;DHT22;39382;47.168;16.008;2023-09-19T13:17:49;26.10;72.40
53498;DHT22;39382;47.168;16.008;2023-09-19T13:20:25;25.90;72.70
53498;DHT22;39382;47.168;16.008;2023-09-19T13:22:55;25.80;76.00
53498;DHT22;39382;47.168;16.008;2023-09-19T13:25:25;25.60;73.00
53498;DHT22;39382;47.168;16.008;2023-09-19T13:27:54;25.50;75.40
53498;DHT22;39382;47.168;16.008;2023-09-19T13:30:26;25.70;76.50
53498;DHT22;39382;47.168;16.008;2023-09-19T13:33:11;26.00;76.20
53498;DHT22;39382;47.168;16.008;2023-09-19T13:35:38;26.10;74.00
53498;DHT22;39382;47.168;16.008;2023-09-19T13:38:05;26.20;73.20
53498;DHT22;39382;47.168;16.008;2023-09-19T13:40:34;26.20;71.80
53498;DHT22;39382;47.168;16.008;2023-09-19T13:43:01;26.20;71.60
53498;DHT22;39382;47.168;16.008;2023-09-19T13:45:26;26.30;72.90
53498;DHT22;39382;47.168;16.008;2023-09-19T13:47:52;26.30;71.90
53498;DHT22;39382;47.168;16.008;2023-09-19T13:50:19;26.00;70.10
53498;DHT22;39382;47.168;16.008;2023-09-19T13:52:52;26.10;70.90
53498;DHT22;39382;47.168;16.008;2023-09-19T13:55:19;26.00;69.90
53498;DHT22;39382;47.168;16.008;2023-09-19T13:57:48;26.00;71.30
53498;DHT22;39382;47.168;16.008;2023-09-19T14:00:20;25.90;69.60
53498;DHT22;39382;47.168;16.008;2023-09-19T14:02:46;25.90;71.50
53498;DHT22;39382;47.168;16.008;2023-09-19T14:05:13;26.00;71.70
53498;DHT22;39382;47.168;16.008;2023-09-19T14:07:41;26.20;73.20
53498;DHT22;39382;47.168;16.008;2023-09-19T14:10:07;26.40;72.00
53498;DHT22;39382;47.168;16.008;2023-09-19T14:12:36;26.50;72.50
53498;DHT22;39382;47.168;16.008;2023-09-19T14:15:05;26.60;69.70
53498;DHT22;39382;47.168;16.008;2023-09-19T14:17:32;26.40;70.30
53498;DHT22;39382;47.168;16.008;2023-09-19T14:19:58;26.00;70.90
53498;DHT22;39382;47.168;16.008;2023-09-19T14:22:24;25.90;73.10
53498;DHT22;39382;47.168;16.008;2023-09-19T14:24:49;25.80;71.10
53498;DHT22;39382;47.168;16.008;2023-09-19T14:27:15;25.80;73.00
53498;DHT22;39382;47.168;16.008;2023-09-19T14:29:41;25.90;73.50
53498;DHT22;39382;47.168;16.008;2023-09-19T14:32:06;25.90;70.70
53498;DHT22;39382;47.168;16.008;2023-09-19T14:34:32;25.90;69.40
53498;DHT22;39382;47.168;16.008;2023-09-19T14:36:58;25.90;67.60
53498;DHT22;39382;47.168;16.008;2023-09-19T14:39:24;26.00;66.40
53498;DHT22;39382;47.168;16.008;2023-09-19T14:41:50;25.90;67.70
53498;DHT22;39382;47.168;16.008;2023-09-19T14:44:16;25.90;68.50
53498;DHT22;39382;47.168;16.008;2023-09-19T14:46:42;25.90;68.90
53498;DHT22;39382;47.168;16.008;2023-09-19T14:49:09;25.80;69.50
53498;DHT22;39382;47.168;16.008;2023-09-19T14:51:37;25.70;68.90
53498;DHT22;39382;47.168;16.008;2023-09-19T14:54:03;25.50;69.70
53498;DHT22;39382;47.168;16.008;2023-09-19T14:56:29;25.40;71.50
53498;DHT22;39382;47.168;16.008;2023-09-19T14:58:56;25.30;70.00
53498;DHT22;39382;47.168;16.008;2023-09-19T15:01:22;25.20;71.10
53498;DHT22;39382;47.168;16.008;2023-09-19T15:03:48;25.20;73.60
53498;DHT22;39382;47.168;16.008;2023-09-19T15:06:15;25.10;75.50
53498;DHT22;39382;47.168;16.008;2023-09-19T15:08:44;25.00;71.90
53498;DHT22;39382;47.168;16.008;2023-09-19T15:11:19;24.90;74.90
53498;DHT22;39382;47.168;16.008;2023-09-19T15:13:46;24.80;82.50
53498;DHT22;39382;47.168;16.008;2023-09-19T15:16:13;24.70;84.90
53498;DHT22;39382;47.168;16.008;2023-09-19T15:18:43;24.50;85.90
53498;DHT22;39382;47.168;16.008;2023-09-19T15:21:11;24.40;87.00
53498;DHT22;39382;47.168;16.008;2023-09-19T15:23:38;24.20;84.60
53498;DHT22;39382;47.168;16.008;2023-09-19T15:26:05;24.20;83.80
53498;DHT22;39382;47.168;16.008;2023-09-19T15:28:31;24.10;84.70
53498;DHT22;39382;47.168;16.008;2023-09-19T15:31:01;24.10;84.30
53498;DHT22;39382;47.168;16.008;2023-09-19T15:33:27;24.20;84.90
53498;DHT22;39382;47.168;16.008;2023-09-19T15:36:03;24.10;84.10
53498;DHT22;39382;47.168;16.008;2023-09-19T15:38:30;24.10;84.30
53498;DHT22;39382;47.168;16.008;2023-09-19T15:40:57;24.00;84.90
53498;DHT22;39382;47.168;16.008;2023-09-19T15:43:23;23.90;85.20
53498;DHT22;39382;47.168;16.008;2023-09-19T15:45:49;23.90;86.30
53498;DHT22;39382;47.168;16.008;2023-09-19T15:48:15;23.90;87.60
53498;DHT22;39382;47.168;16.008;2023-09-19T15:50:42;23.80;88.00
53498;DHT22;39382;47.168;16.008;2023-09-19T15:53:10;23.70;89.30
53498;DHT22;39382;47.168;16.008;2023-09-19T15:55:41;23.60;90.00
53498;DHT22;39382;47.168;16.008;2023-09-19T15:58:07;23.50;90.30
53498;DHT22;39382;47.168;16.008;2023-09-19T16:00:33;23.50;90.60
53498;DHT22;39382;47.168;16.008;2023-09-19T16:03:02;23.40;90.40
53498;DHT22;39382;47.168;16.008;2023-09-19T16:05:37;23.40;90.80
53498;DHT22;39382;47.168;16.008;2023-09-19T16:08:08;23.30;91.30